Time;durP1;ratioP1;P1;durP2;ratioP2;P2;SDS_P1;SDS_P2;PMS_P1;PMS_P2;Temp;Humidity;BMP_temperature;BMP_pressure;BME280_temperature;BME280_humidity;BME280_pressure;Samples;Min_cycle;Max_cycle;Signal;HPM_P1;HPM_P2
2023/02/15 00:03:44;;;;;;;22.38;4.93;;;-0.50;99.90;;;;;;8236430;28;20031;-81
2023/02/15 00:07:45;;;;;;;23.83;5.38;;;-0.60;99.90;;;;;;8240386;28;20022;-81
2023/02/15 00:11:49;;;;;;;14.50;4.97;;;-0.60;99.90;;;;;;8238507;28;20038;-80
2023/02/15 00:15:50;;;;;;;8.93;4.38;;;-0.60;99.90;;;;;;8239593;28;20027;-80
2023/02/15 00:19:50;;;;;;;17.55;4.97;;;-0.70;99.90;;;;;;8238669;28;20048;-79
2023/02/15 00:23:51;;;;;;;25.45;5.65;;;-0.60;99.90;;;;;;8239298;28;20038;-80
2023/02/15 00:27:51;;;;;;;38.75;5.10;;;-0.40;99.90;;;;;;8238469;28;20110;-80
2023/02/15 00:31:53;;;;;;;17.88;4.47;;;-0.60;99.90;;;;;;8238138;28;20396;-80
2023/02/15 00:36:01;;;;;;;1.95;1.63;;;-0.80;99.90;;;;;;8238940;28;20015;-80
2023/02/15 00:40:01;;;;;;;2.75;2.22;;;-0.70;99.90;;;;;;8240947;28;20027;-80
2023/02/15 00:44:02;;;;;;;36.33;4.53;;;-0.40;99.90;;;;;;8238806;28;20049;-81
2023/02/15 00:48:03;;;;;;;19.83;5.22;;;-0.50;99.90;;;;;;8239238;28;20034;-80
2023/02/15 00:52:03;;;;;;;44.90;5.63;;;-0.40;99.90;;;;;;8239570;28;20034;-80
2023/02/15 00:56:04;;;;;;;6.55;3.70;;;-0.50;99.90;;;;;;8239969;28;20086;-80
2023/02/15 01:00:05;;;;;;;6.32;3.85;;;-0.70;99.90;;;;;;8239775;28;20065;-79
2023/02/15 01:04:06;;;;;;;9.98;4.00;;;-0.50;99.90;;;;;;8239656;28;20106;-80
2023/02/15 01:08:07;;;;;;;23.55;4.80;;;-0.60;99.90;;;;;;8239654;28;20502;-80
2023/02/15 01:12:08;;;;;;;9.55;4.25;;;-0.50;99.90;;;;;;8248055;28;20550;-80
2023/02/15 01:16:09;;;;;;;31.27;5.47;;;-0.50;99.90;;;;;;8241015;28;20034;-78
2023/02/15 01:20:10;;;;;;;25.02;4.47;;;-0.40;99.90;;;;;;8235003;28;20081;-80
2023/02/15 01:24:13;;;;;;;25.42;5.03;;;-0.40;99.90;;;;;;8235070;28;20031;-80
2023/02/15 01:28:14;;;;;;;8.57;4.60;;;-0.70;99.90;;;;;;8234379;28;20042;-78
2023/02/15 01:32:14;;;;;;;9.65;5.03;;;-0.80;99.90;;;;;;8227735;28;20053;-79
2023/02/15 01:36:17;;;;;;;15.00;5.10;;;-0.70;99.90;;;;;;8233503;28;20043;-80
2023/02/15 01:40:18;;;;;;;8.88;4.45;;;-0.90;99.90;;;;;;8233749;28;20456;-79
2023/02/15 01:44:46;;;;;;;12.93;5.25;;;-0.80;99.90;;;;;;8233534;28;20026;-80
2023/02/15 01:48:50;;;;;;;34.38;5.88;;;-0.70;99.90;;;;;;8233135;28;20018;-80
2023/02/15 01:52:53;;;;;;;14.15;4.25;;;-0.70;99.90;;;;;;8233270;28;20470;-80
2023/02/15 01:57:03;;;;;;;33.08;5.05;;;-0.70;99.90;;;;;;8234295;28;20438;-80
2023/02/15 02:01:07;;;;;;;17.13;4.95;;;-0.70;99.90;;;;;;8229635;28;20034;-80
2023/02/15 02:05:07;;;;;;;29.38;5.18;;;-0.70;99.90;;;;;;8232869;28;20046;-81
2023/02/15 02:09:08;;;;;;;12.93;3.95;;;-0.70;99.90;;;;;;8234492;28;20423;-81
2023/02/15 02:13:09;;;;;;;17.25;4.57;;;-0.70;99.90;;;;;;8235175;28;20077;-81
2023/02/15 02:17:31;;;;;;;14.18;4.40;;;-0.50;99.90;;;;;;8233706;28;20031;-81
2023/02/15 02:22:06;;;;;;;33.63;5.38;;;-0.70;99.90;;;;;;8228770;28;20022;-81
2023/02/15 02:26:25;;;;;;;21.77;4.97;;;-0.90;99.90;;;;;;8233700;28;20031;-82
2023/02/15 02:30:36;;;;;;;19.42;4.10;;;-0.80;99.90;;;;;;8228825;28;20023;-81
2023/02/15 02:35:02;;;;;;;6.68;3.75;;;-0.90;99.90;;;;;;8233372;28;20026;-82
2023/02/15 02:39:12;;;;;;;15.27;4.65;;;-0.80;99.90;;;;;;8232185;28;20030;-82
2023/02/15 02:43:22;;;;;;;14.73;4.70;;;-0.70;99.90;;;;;;8233338;28;20023;-81
2023/02/15 02:47:30;;;;;;;18.63;4.70;;;-0.90;99.90;;;;;;8232758;28;20035;-81
2023/02/15 02:51:31;;;;;;;25.90;5.20;;;-0.80;99.90;;;;;;8233000;28;20062;-81
2023/02/15 02:55:39;;;;;;;6.38;3.92;;;-0.60;99.90;;;;;;8234371;28;20034;-81
2023/02/15 02:59:45;;;;;;;9.00;4.20;;;-0.60;99.90;;;;;;8233226;28;20023;-81
2023/02/15 03:03:55;;;;;;;9.77;4.28;;;-0.80;99.90;;;;;;8233095;28;20102;-81
2023/02/15 03:07:57;;;;;;;5.45;3.13;;;-0.70;99.90;;;;;;8232687;28;20061;-81
2023/02/15 03:11:57;;;;;;;5.93;2.97;;;-0.80;99.90;;;;;;8232478;28;20097;-81
2023/02/15 03:20:28;;;;;;;12.27;4.47;;;-0.70;99.90;;;;;;8227035;28;20517;-81
2023/02/15 03:24:32;;;;;;;;;;;-0.90;99.90;;;;;;8232692;28;20019;-81
2023/02/15 03:28:41;;;;;;;12.52;4.13;;;-0.90;99.90;;;;;;8233238;28;19906;-81
2023/02/15 03:32:44;;;;;;;7.47;4.10;;;-1.20;99.90;;;;;;8231758;28;20062;-81
2023/02/15 03:36:59;;;;;;;13.38;4.10;;;-1.20;99.90;;;;;;8232128;28;20149;-81
2023/02/15 03:41:09;;;;;;;6.85;4.57;;;-1.20;99.90;;;;;;8231559;28;20029;-81
2023/02/15 03:45:13;;;;;;;6.57;3.78;;;-1.20;99.90;;;;;;8229717;28;20082;-78
2023/02/15 03:49:42;;;;;;;8.70;4.47;;;-1.10;99.90;;;;;;8229474;28;20027;-80
2023/02/15 03:53:44;;;;;;;14.63;4.25;;;-1.10;99.90;;;;;;8226591;28;20023;-80
2023/02/15 04:02:28;;;;;;;9.57;4.28;;;-1.10;99.90;;;;;;8225146;28;20114;-80
2023/02/15 04:06:28;;;;;;;6.00;3.47;;;-1.20;99.90;;;;;;8222460;28;20037;-80
2023/02/15 04:27:48;;;;;;;11.30;4.85;;;-1.20;99.90;;;;;;8230436;28;20042;-80
2023/02/15 04:31:50;;;;;;;8.50;3.97;;;-1.40;99.90;;;;;;8228399;28;20495;-80
2023/02/15 04:35:51;;;;;;;8.13;3.92;;;-1.50;99.90;;;;;;8229787;28;20058;-81
2023/02/15 04:39:51;;;;;;;8.80;5.03;;;-1.50;99.90;;;;;;8232284;28;20027;-81
2023/02/15 04:43:52;;;;;;;7.45;4.90;;;-1.40;99.90;;;;;;8231909;28;20506;-80
2023/02/15 04:47:52;;;;;;;7.05;3.72;;;-1.20;99.90;;;;;;8232808;28;20027;-80
2023/02/15 04:51:53;;;;;;;4.85;3.53;;;-1.50;99.90;;;;;;8236637;28;20511;-81
2023/02/15 04:55:53;;;;;;;14.48;4.50;;;-1.50;99.90;;;;;;8235481;28;20027;-80
2023/02/15 04:59:54;;;;;;;8.85;4.82;;;-1.60;99.90;;;;;;8236220;28;20098;-81
2023/02/15 05:03:55;;;;;;;5.47;3.20;;;-1.80;99.90;;;;;;8237361;28;20427;-80
2023/02/15 05:07:55;;;;;;;6.50;4.13;;;-1.60;99.90;;;;;;8237005;28;20035;-80
2023/02/15 05:11:56;;;;;;;7.78;4.07;;;-1.60;99.90;;;;;;8235955;28;20027;-81
2023/02/15 05:15:56;;;;;;;5.10;3.13;;;-1.90;99.90;;;;;;8235564;28;20026;-80
2023/02/15 05:19:57;;;;;;;19.50;4.68;;;-1.90;99.90;;;;;;8235839;28;20027;-79
2023/02/15 05:23:57;;;;;;;8.05;4.57;;;-2.10;99.90;;;;;;8235039;28;20026;-80
2023/02/15 05:32:17;;;;;;;15.60;4.77;;;-1.90;99.90;;;;;;8237076;28;20089;-81
2023/02/15 05:36:17;;;;;;;7.47;4.35;;;-2.10;99.90;;;;;;8233906;28;20059;-80
2023/02/15 05:40:18;;;;;;;8.02;4.38;;;-2.00;99.90;;;;;;8238160;28;20195;-81
2023/02/15 05:44:18;;;;;;;7.45;4.60;;;-2.00;99.90;;;;;;8232855;28;20030;-81
2023/02/15 05:48:20;;;;;;;8.13;5.10;;;-2.10;99.90;;;;;;8236278;28;20109;-81
2023/02/15 05:52:21;;;;;;;10.85;5.40;;;-2.10;99.90;;;;;;8234844;28;20088;-81
2023/02/15 05:56:22;;;;;;;9.50;4.50;;;-2.10;99.90;;;;;;8234829;28;20035;-81
2023/02/15 06:00:23;;;;;;;9.48;4.45;;;-2.20;99.90;;;;;;8234451;28;20023;-80
2023/02/15 06:04:23;;;;;;;9.10;4.88;;;-2.00;99.90;;;;;;8232182;28;20046;-80
2023/02/15 06:08:24;;;;;;;15.15;5.07;;;-2.00;99.90;;;;;;8232025;28;20031;-80
2023/02/15 06:12:24;;;;;;;6.85;3.83;;;-2.00;99.90;;;;;;8232422;28;20081;-78
2023/02/15 06:16:25;;;;;;;7.82;4.20;;;-2.10;99.90;;;;;;8232286;28;20042;-79
2023/02/15 06:20:26;;;;;;;9.32;4.53;;;-1.70;99.90;;;;;;8230909;28;20026;-80
2023/02/15 06:24:26;;;;;;;8.93;4.55;;;-1.80;99.90;;;;;;8230854;28;20073;-79
2023/02/15 06:28:27;;;;;;;14.15;4.93;;;-1.80;99.90;;;;;;8230541;28;20046;-80
2023/02/15 06:32:27;;;;;;;17.17;4.85;;;-1.90;99.90;;;;;;8232481;28;20039;-80
2023/02/15 06:36:28;;;;;;;11.38;4.95;;;-1.80;99.90;;;;;;8230576;28;20501;-79
2023/02/15 06:40:29;;;;;;;7.70;4.07;;;-1.70;99.90;;;;;;8230485;28;20038;-79
2023/02/15 06:44:29;;;;;;;21.05;5.18;;;-1.80;99.90;;;;;;8230245;28;20483;-79
2023/02/15 06:48:30;;;;;;;9.32;4.03;;;-1.70;99.90;;;;;;8231137;28;20027;-79
2023/02/15 06:52:30;;;;;;;8.60;4.15;;;-1.70;99.90;;;;;;8229548;28;20027;-79
2023/02/15 06:56:31;;;;;;;6.10;3.78;;;-1.70;99.90;;;;;;8229618;28;20035;-80
2023/02/15 07:00:31;;;;;;;9.82;4.70;;;-1.70;99.90;;;;;;8230549;28;20220;-79
2023/02/15 07:04:32;;;;;;;7.38;4.03;;;-1.50;99.90;;;;;;8231001;28;20030;-80
2023/02/15 07:08:33;;;;;;;15.02;4.80;;;-1.50;99.90;;;;;;8230809;28;20023;-79
2023/02/15 07:12:42;;;;;;;10.85;5.68;;;-1.60;99.90;;;;;;8228831;28;20034;-79
2023/02/15 07:16:43;;;;;;;;;;;-1.40;99.90;;;;;;8229637;28;20058;-78
2023/02/15 07:20:43;;;;;;;13.05;4.72;;;-1.30;99.90;;;;;;8230189;28;20382;-80
2023/02/15 07:24:44;;;;;;;6.50;4.68;;;-1.20;99.90;;;;;;8229409;28;20019;-78
2023/02/15 07:28:44;;;;;;;16.98;6.32;;;-1.10;99.90;;;;;;8229539;28;20543;-78
2023/02/15 07:37:04;;;;;;;10.93;6.47;;;-1.30;99.90;;;;;;8230955;28;20166;-79
2023/02/15 07:41:07;;;;;;;18.95;6.05;;;-1.20;99.90;;;;;;8228850;28;20019;-77
2023/02/15 07:45:08;;;;;;;9.88;4.75;;;-0.90;99.90;;;;;;8230098;28;20050;-78
2023/02/15 07:49:09;;;;;;;8.27;4.85;;;-0.80;99.90;;;;;;8228639;28;20431;-79
2023/02/15 07:53:09;;;;;;;10.90;5.72;;;-0.70;99.90;;;;;;8228534;28;20078;-79
2023/02/15 07:57:10;;;;;;;9.50;6.22;;;-0.70;99.90;;;;;;8229217;28;20236;-79
2023/02/15 08:01:10;;;;;;;5.60;3.28;;;-0.50;99.90;;;;;;8223634;28;20019;-78
2023/02/15 08:05:11;;;;;;;11.18;5.25;;;-0.40;99.90;;;;;;8227910;28;20333;-79
2023/02/15 08:09:11;;;;;;;12.35;5.65;;;-0.50;99.90;;;;;;8228864;28;20065;-79
2023/02/15 08:13:12;;;;;;;12.45;5.85;;;-0.60;99.90;;;;;;8227959;28;20677;-79
2023/02/15 08:17:13;;;;;;;12.50;6.78;;;-0.60;99.90;;;;;;8229912;28;20027;-78
2023/02/15 08:21:13;;;;;;;9.27;4.55;;;-0.60;99.90;;;;;;8229764;28;20030;-77
2023/02/15 08:25:14;;;;;;;14.57;6.75;;;-0.20;99.90;;;;;;8234256;28;20046;-77
2023/02/15 08:29:17;;;;;;;5.28;2.28;;;0.00;99.90;;;;;;8236201;28;20053;-79
2023/02/15 08:33:18;;;;;;;11.38;6.10;;;0.30;99.90;;;;;;8228819;28;20031;-78
2023/02/15 08:37:18;;;;;;;8.90;4.63;;;0.20;99.90;;;;;;8234576;28;20510;-79
2023/02/15 08:41:25;;;;;;;12.02;5.78;;;0.20;99.90;;;;;;8234206;28;20118;-79
2023/02/15 08:45:25;;;;;;;7.13;4.43;;;0.20;99.90;;;;;;8235454;28;20510;-77
2023/02/15 08:49:26;;;;;;;11.93;7.05;;;0.10;99.90;;;;;;8234902;28;20027;-79
2023/02/15 08:53:26;;;;;;;10.15;4.80;;;-0.10;99.90;;;;;;8235375;28;20036;-78
2023/02/15 08:57:27;;;;;;;9.65;5.50;;;-0.10;99.90;;;;;;8234684;28;20037;-79
2023/02/15 09:01:30;;;;;;;10.57;5.72;;;-0.30;99.90;;;;;;8229619;28;20031;-79
2023/02/15 09:05:30;;;;;;;14.25;7.32;;;-0.10;99.90;;;;;;8235217;28;20608;-79
2023/02/15 09:09:31;;;;;;;16.92;8.13;;;0.10;99.90;;;;;;8236287;28;20027;-80
2023/02/15 09:13:33;;;;;;;15.63;8.00;;;0.20;99.90;;;;;;8235960;28;20023;-79
2023/02/15 09:17:34;;;;;;;14.70;7.88;;;0.30;99.90;;;;;;8235269;28;20025;-79
2023/02/15 09:21:37;;;;;;;14.40;7.57;;;0.70;99.90;;;;;;8238428;28;20106;-79
2023/02/15 09:25:37;;;;;;;11.50;6.88;;;0.70;99.90;;;;;;8238915;28;20022;-79
2023/02/15 09:29:38;;;;;;;18.17;8.70;;;0.90;99.90;;;;;;8238463;28;20078;-78
2023/02/15 09:33:40;;;;;;;7.82;4.97;;;1.00;99.90;;;;;;8238310;28;20026;-78
2023/02/15 09:37:41;;;;;;;16.58;8.27;;;1.40;99.90;;;;;;8236741;28;20063;-77
2023/02/15 09:41:56;;;;;;;14.88;8.43;;;1.70;99.90;;;;;;8239059;28;20043;-77
2023/02/15 09:46:02;;;;;;;16.15;8.15;;;2.20;99.90;;;;;;8232601;28;20049;-78
2023/02/15 09:50:37;;;;;;;11.68;5.57;;;2.50;99.90;;;;;;8234241;28;20030;-78
2023/02/15 09:54:59;;;;;;;17.55;8.60;;;2.90;99.90;;;;;;8226803;28;20030;-78
2023/02/15 09:59:06;;;;;;;17.80;9.63;;;3.40;99.90;;;;;;8231049;28;20108;-79
2023/02/15 10:03:43;;;;;;;17.33;10.00;;;3.70;99.90;;;;;;8231759;28;20050;-77
2023/02/15 10:08:31;;;;;;;22.33;10.75;;;4.20;99.90;;;;;;8231434;28;20023;-79
2023/02/15 10:12:38;;;;;;;20.60;10.65;;;4.90;99.90;;;;;;8169949;28;20035;-78
2023/02/15 10:17:09;;;;;;;24.92;13.15;;;5.40;99.90;;;;;;8232326;28;20030;-79
2023/02/15 10:21:40;;;;;;;24.83;12.57;;;6.20;99.90;;;;;;8232321;28;20027;-79
2023/02/15 10:25:53;;;;;;;25.45;12.55;;;7.20;99.90;;;;;;8225964;28;20022;-79
2023/02/15 10:30:04;;;;;;;23.70;11.38;;;8.00;99.90;;;;;;8230897;28;20431;-78
2023/02/15 10:34:18;;;;;;;21.08;9.88;;;8.60;99.90;;;;;;8230730;28;20035;-80
2023/02/15 10:38:36;;;;;;;17.73;8.60;;;9.20;99.90;;;;;;8230141;28;20519;-79
2023/02/15 10:43:06;;;;;;;14.65;7.55;;;7.80;99.90;;;;;;8230591;28;20035;-79
2023/02/15 10:47:47;;;;;;;22.65;10.88;;;7.20;99.90;;;;;;8231921;28;20026;-79
2023/02/15 10:51:56;;;;;;;19.15;9.93;;;7.20;99.90;;;;;;8228388;28;20082;-80
2023/02/15 10:56:13;;;;;;;19.13;8.95;;;7.40;99.90;;;;;;8231179;28;20031;-80
2023/02/15 11:00:16;;;;;;;18.48;9.32;;;7.70;99.90;;;;;;8231552;28;20534;-80
2023/02/15 11:04:16;;;;;;;21.10;9.48;;;8.10;99.90;;;;;;8230540;28;20050;-79
2023/02/15 11:08:18;;;;;;;19.45;9.80;;;8.70;99.90;;;;;;8222888;28;20026;-77
2023/02/15 11:12:26;;;;;;;18.60;9.48;;;9.30;99.90;;;;;;8230354;28;20027;-78
2023/02/15 11:16:36;;;;;;;18.40;9.27;;;10.30;99.90;;;;;;8230047;28;20078;-80
2023/02/15 11:21:01;;;;;;;17.60;8.60;;;11.70;99.90;;;;;;8231505;28;20022;-78
2023/02/15 11:25:13;;;;;;;16.50;8.48;;;13.20;99.90;;;;;;8229336;28;20077;-79
2023/02/15 11:29:54;;;;;;;12.15;7.13;;;13.20;99.90;;;;;;8230058;28;20050;-79
2023/02/15 11:34:03;;;;;;;15.13;8.10;;;13.50;99.90;;;;;;8227286;28;20513;-80
2023/02/15 11:38:14;;;;;;;15.02;7.57;;;13.20;99.90;;;;;;8229695;28;20523;-79
2023/02/15 11:42:18;;;;;;;15.45;8.23;;;14.00;99.90;;;;;;8229965;28;20030;-80
2023/02/15 11:46:20;;;;;;;16.17;8.75;;;15.00;99.90;;;;;;8230703;28;20109;-80
2023/02/15 11:50:32;;;;;;;17.85;8.70;;;15.20;99.90;;;;;;8229896;28;20689;-80
2023/02/15 11:54:36;;;;;;;19.08;9.30;;;16.00;99.90;;;;;;8229881;28;20031;-80
2023/02/15 11:58:42;;;;;;;18.38;9.18;;;16.50;99.90;;;;;;8228623;28;20061;-80
2023/02/15 12:02:49;;;;;;;17.17;9.25;;;16.70;99.90;;;;;;8229086;28;20019;-80
2023/02/15 12:06:57;;;;;;;16.33;8.27;;;17.50;98.10;;;;;;8228881;28;20039;-80
2023/02/15 12:11:12;;;;;;;15.10;9.00;;;18.10;95.20;;;;;;8229400;28;20031;-80
2023/02/15 12:15:13;;;;;;;15.80;8.48;;;18.60;93.40;;;;;;8229322;28;20027;-81
2023/02/15 12:19:55;;;;;;;14.95;8.57;;;18.40;92.60;;;;;;8229096;28;20038;-80
2023/02/15 12:23:58;;;;;;;;;;;19.00;90.90;;;;;;8146508;29;20055;-80
2023/02/15 12:27:58;;;;;;;16.75;8.85;;;18.60;90.80;;;;;;8195203;28;19913;-81
2023/02/15 12:31:59;;;;;;;17.23;8.63;;;19.10;86.90;;;;;;8229037;28;20038;-80
2023/02/15 12:36:20;;;;;;;16.42;9.07;;;18.80;86.70;;;;;;8230727;28;20049;-81
2023/02/15 12:40:25;;;;;;;19.77;9.77;;;18.30;84.90;;;;;;8222412;28;20027;-80
2023/02/15 12:44:29;;;;;;;17.98;8.23;;;18.40;82.00;;;;;;8228959;28;20026;-79
2023/02/15 12:48:29;;;;;;;21.33;9.32;;;18.40;84.00;;;;;;8229056;28;20030;-80
2023/02/15 12:52:30;;;;;;;17.38;7.65;;;15.80;91.60;;;;;;8230475;28;20530;-79
2023/02/15 12:56:30;;;;;;;21.40;9.15;;;12.90;97.40;;;;;;8228675;28;20031;-80
2023/02/15 13:00:31;;;;;;;18.15;8.60;;;11.70;99.90;;;;;;8227460;28;20023;-80
2023/02/15 13:04:33;;;;;;;19.38;9.57;;;11.30;99.90;;;;;;8228753;28;20053;-80
2023/02/15 13:08:45;;;;;;;18.45;9.13;;;11.00;99.90;;;;;;8229664;28;20022;-80
2023/02/15 13:12:47;;;;;;;21.25;9.38;;;10.80;99.90;;;;;;8235888;28;20034;-79
2023/02/15 13:16:50;;;;;;;16.92;8.20;;;10.70;99.90;;;;;;8233723;28;20118;-80
2023/02/15 13:20:52;;;;;;;17.33;9.15;;;10.50;99.90;;;;;;8234353;28;20015;-80
2023/02/15 13:25:04;;;;;;;18.10;9.57;;;10.50;99.90;;;;;;8235811;28;20077;-80
2023/02/15 13:29:22;;;;;;;16.58;8.35;;;10.50;99.90;;;;;;8234162;28;20031;-80
2023/02/15 13:33:30;;;;;;;17.55;9.18;;;10.40;99.90;;;;;;8227354;28;20065;-80
2023/02/15 13:37:56;;;;;;;16.20;8.32;;;10.40;99.90;;;;;;8233895;28;20624;-80
2023/02/15 13:42:20;;;;;;;17.27;8.10;;;10.50;99.90;;;;;;8233903;28;20444;-78
2023/02/15 13:46:50;;;;;;;17.27;8.15;;;10.50;99.90;;;;;;8228271;28;20027;-80
2023/02/15 13:51:17;;;;;;;18.02;8.35;;;10.50;99.90;;;;;;8233798;28;20047;-80
2023/02/15 13:55:29;;;;;;;16.52;8.07;;;10.40;99.90;;;;;;8233340;28;20084;-79
2023/02/15 13:59:40;;;;;;;18.33;8.07;;;10.50;99.90;;;;;;8227331;28;20031;-78
2023/02/15 14:03:56;;;;;;;16.08;7.75;;;10.60;99.90;;;;;;8232501;28;20379;-79
2023/02/15 14:08:07;;;;;;;18.52;8.57;;;10.70;99.90;;;;;;8232131;28;20027;-80
2023/02/15 14:12:32;;;;;;;15.57;8.02;;;10.70;99.90;;;;;;8232489;28;20035;-78
2023/02/15 14:16:44;;;;;;;17.55;8.57;;;10.60;99.90;;;;;;8226744;28;20023;-80
2023/02/15 14:21:02;;;;;;;17.42;8.10;;;10.70;99.90;;;;;;8232602;28;20023;-80
2023/02/15 14:25:25;;;;;;;14.68;7.90;;;10.70;99.90;;;;;;8232999;28;20027;-79
2023/02/15 14:29:37;;;;;;;17.33;8.38;;;10.60;99.90;;;;;;8225772;28;20051;-80
2023/02/15 14:33:42;;;;;;;15.38;7.82;;;10.70;99.90;;;;;;8232201;28;20038;-80
2023/02/15 14:38:01;;;;;;;13.48;7.25;;;10.40;99.90;;;;;;8231824;28;20026;-79
2023/02/15 14:42:15;;;;;;;16.83;7.78;;;10.50;99.90;;;;;;8232213;28;20046;-79
2023/02/15 14:46:34;;;;;;;16.50;8.27;;;10.50;99.90;;;;;;8231368;28;20031;-80
2023/02/15 14:50:45;;;;;;;17.02;8.00;;;10.50;99.90;;;;;;8226608;28;20050;-79
2023/02/15 14:54:46;;;;;;;16.02;8.60;;;10.40;99.90;;;;;;8231721;28;20495;-79
2023/02/15 14:58:49;;;;;;;16.83;8.40;;;10.40;99.90;;;;;;8231597;28;20050;-79
2023/02/15 15:02:52;;;;;;;18.58;9.05;;;10.50;99.90;;;;;;8226226;28;20512;-80
2023/02/15 15:07:24;;;;;;;19.30;9.13;;;10.40;99.90;;;;;;8230430;28;20493;-77
2023/02/15 15:11:30;;;;;;;19.10;8.40;;;9.80;99.90;;;;;;8223932;28;20223;-79
2023/02/15 15:15:30;;;;;;;13.63;8.02;;;9.40;99.90;;;;;;8230134;28;20408;-85
2023/02/15 15:19:46;;;;;;;15.07;7.45;;;9.20;99.90;;;;;;8235014;28;20042;-82
2023/02/15 15:23:48;;;;;;;15.57;8.13;;;8.90;99.90;;;;;;8233143;28;20023;-82
2023/02/15 15:27:51;;;;;;;14.05;7.55;;;8.70;99.90;;;;;;8235318;28;20077;-82
2023/02/15 15:31:55;;;;;;;16.85;8.13;;;8.60;99.90;;;;;;8232636;28;20049;-82
2023/02/15 15:36:29;;;;;;;18.27;8.00;;;8.50;99.90;;;;;;8235262;28;20031;-82
2023/02/15 15:40:42;;;;;;;16.25;7.22;;;8.40;99.90;;;;;;8233769;28;20113;-81
2023/02/15 15:44:59;;;;;;;17.55;7.68;;;8.10;99.90;;;;;;8238753;28;20023;-81
2023/02/15 15:49:06;;;;;;;17.90;7.55;;;8.00;99.90;;;;;;8235988;28;20463;-81
2023/02/15 15:53:22;;;;;;;17.00;7.85;;;8.00;99.90;;;;;;8236647;28;20034;-82
2023/02/15 15:57:33;;;;;;;14.50;7.78;;;8.00;99.90;;;;;;8233563;28;20050;-82
2023/02/15 16:01:42;;;;;;;17.52;7.78;;;7.90;99.90;;;;;;8228070;28;20031;-81
2023/02/15 16:05:43;;;;;;;14.23;7.60;;;7.50;99.90;;;;;;8234201;28;20030;-82
2023/02/15 16:09:58;;;;;;;19.20;8.57;;;7.00;99.90;;;;;;8232939;28;20455;-81
2023/02/15 16:13:59;;;;;;;19.50;10.40;;;6.80;99.90;;;;;;8232888;28;20027;-82
2023/02/15 16:18:00;;;;;;;21.48;11.35;;;6.90;99.90;;;;;;8233643;28;20037;-82
2023/02/15 16:22:03;;;;;;;23.83;11.63;;;6.80;99.90;;;;;;8234470;28;20027;-82
2023/02/15 16:26:24;;;;;;;26.05;12.45;;;6.70;99.90;;;;;;8235684;28;20085;-82
2023/02/15 16:30:28;;;;;;;20.92;11.00;;;6.30;99.90;;;;;;8231718;28;20062;-82
2023/02/15 16:34:32;;;;;;;21.67;10.75;;;6.10;99.90;;;;;;8234459;28;20026;-82
2023/02/15 16:38:54;;;;;;;23.42;11.38;;;5.80;99.90;;;;;;8233752;28;20027;-82
2023/02/15 16:43:00;;;;;;;21.52;10.90;;;5.40;99.90;;;;;;8235038;28;20089;-81
2023/02/15 16:47:01;;;;;;;32.47;15.15;;;5.10;99.90;;;;;;8239271;28;20031;-81
2023/02/15 16:51:02;;;;;;;23.15;11.77;;;5.00;99.90;;;;;;8239516;28;20086;-82
2023/02/15 16:55:05;;;;;;;21.33;10.35;;;4.80;99.90;;;;;;8239544;28;20517;-81
2023/02/15 16:59:30;;;;;;;21.40;10.30;;;4.60;99.90;;;;;;8237361;28;20034;-80
2023/02/15 17:03:31;;;;;;;21.60;9.93;;;4.50;99.90;;;;;;8229185;28;20022;-80
2023/02/15 17:07:33;;;;;;;20.15;9.98;;;4.50;99.90;;;;;;8232949;28;20610;-80
2023/02/15 17:11:39;;;;;;;21.50;10.50;;;4.20;99.90;;;;;;8226521;28;20023;-80
2023/02/15 17:15:43;;;;;;;23.77;9.32;;;4.10;99.90;;;;;;8226082;28;20027;-80
2023/02/15 17:19:53;;;;;;;21.23;10.43;;;4.50;99.90;;;;;;8230535;28;20479;-80
2023/02/15 17:24:00;;;;;;;28.15;9.80;;;4.70;99.90;;;;;;8224905;28;20493;-80
2023/02/15 17:28:00;;;;;;;22.50;9.45;;;4.20;99.90;;;;;;8221753;28;20046;-80
2023/02/15 17:32:02;;;;;;;25.55;9.55;;;3.60;99.90;;;;;;8219425;28;20500;-80
2023/02/15 17:36:02;;;;;;;18.42;9.77;;;3.20;99.90;;;;;;8219241;28;20031;-80
2023/02/15 17:40:25;;;;;;;21.83;11.00;;;3.10;99.90;;;;;;8232780;28;20022;-78
2023/02/15 17:44:26;;;;;;;21.38;11.00;;;3.00;99.90;;;;;;8222145;28;20038;-79
2023/02/15 17:48:35;;;;;;;21.27;11.07;;;2.80;99.90;;;;;;8236763;28;20038;-80
2023/02/15 17:52:36;;;;;;;23.10;9.52;;;2.50;99.90;;;;;;8232583;28;20058;-78
2023/02/15 17:56:38;;;;;;;25.92;13.27;;;2.20;99.90;;;;;;8231783;28;20042;-80
2023/02/15 18:13:41;;;;;;;16.10;8.45;;;2.30;99.90;;;;;;8232933;28;20038;-79
2023/02/15 18:17:44;;;;;;;23.50;8.25;;;2.70;99.90;;;;;;8233464;28;20031;-79
2023/02/15 18:21:45;;;;;;;18.02;8.25;;;2.70;99.90;;;;;;8235053;28;20023;-80
2023/02/15 18:25:46;;;;;;;20.65;9.95;;;2.50;99.90;;;;;;8232768;28;20470;-80
2023/02/15 18:29:47;;;;;;;21.30;9.18;;;2.20;99.90;;;;;;8229152;28;20034;-80
2023/02/15 18:33:52;;;;;;;18.42;8.68;;;1.80;99.90;;;;;;8230843;28;20034;-78
2023/02/15 18:37:53;;;;;;;20.15;9.07;;;1.50;99.90;;;;;;8232931;28;20053;-80
2023/02/15 18:41:54;;;;;;;20.40;9.45;;;1.00;99.90;;;;;;8232934;28;20106;-81
2023/02/15 18:45:54;;;;;;;18.10;8.88;;;0.80;99.90;;;;;;8226753;28;20034;-80
2023/02/15 18:49:55;;;;;;;17.70;8.60;;;0.60;99.90;;;;;;8231809;28;20035;-81
2023/02/15 18:54:01;;;;;;;19.90;9.25;;;0.40;99.90;;;;;;8232470;28;20042;-80
2023/02/15 18:58:02;;;;;;;21.23;8.88;;;0.50;99.90;;;;;;8236872;28;20035;-81
2023/02/15 19:02:02;;;;;;;18.88;9.40;;;0.40;99.90;;;;;;8234477;28;20030;-80
2023/02/15 19:06:05;;;;;;;22.40;10.20;;;0.40;99.90;;;;;;8229674;28;20119;-80
2023/02/15 19:10:12;;;;;;;27.88;12.40;;;0.30;99.90;;;;;;8228991;28;20066;-79
2023/02/15 19:14:29;;;;;;;33.38;13.00;;;0.10;99.90;;;;;;8230497;28;20061;-78
2023/02/15 19:18:29;;;;;;;28.73;12.45;;;0.10;99.90;;;;;;8227763;28;20074;-79
2023/02/15 19:22:31;;;;;;;34.40;14.68;;;0.00;99.90;;;;;;8226353;28;20050;-78
2023/02/15 19:26:41;;;;;;;28.00;12.90;;;-0.10;99.90;;;;;;8227803;28;20027;-79
2023/02/15 19:30:42;;;;;;;28.30;12.70;;;0.00;99.90;;;;;;8226876;28;20042;-79
2023/02/15 19:34:42;;;;;;;25.38;11.07;;;-0.20;99.90;;;;;;8225163;28;20194;-79
2023/02/15 19:38:50;;;;;;;21.33;10.93;;;-0.30;99.90;;;;;;8217165;28;20034;-78
2023/02/15 19:42:50;;;;;;;23.42;10.07;;;-0.10;99.90;;;;;;8212666;28;20510;-79
2023/02/15 19:46:51;;;;;;;21.17;9.75;;;0.20;99.90;;;;;;8211212;28;20039;-78
2023/02/15 19:50:52;;;;;;;32.47;13.68;;;0.70;99.90;;;;;;8207268;28;20167;-79
2023/02/15 19:54:53;;;;;;;32.63;12.43;;;0.60;99.90;;;;;;8218593;28;20045;-79
2023/02/15 19:58:56;;;;;;;35.38;12.15;;;0.40;99.90;;;;;;8227517;28;20085;-79
2023/02/15 20:02:58;;;;;;;29.27;12.52;;;0.00;99.90;;;;;;8227934;28;20050;-79
2023/02/15 20:07:01;;;;;;;25.88;10.40;;;-0.10;99.90;;;;;;8227040;28;20041;-79
2023/02/15 20:11:01;;;;;;;24.83;11.57;;;-0.50;99.90;;;;;;8228394;28;20082;-79
2023/02/15 20:15:16;;;;;;;28.60;10.63;;;-0.50;99.90;;;;;;8226656;28;20117;-79
2023/02/15 20:19:17;;;;;;;20.52;10.70;;;-0.30;99.90;;;;;;8229214;28;20105;-79
2023/02/15 20:23:27;;;;;;;21.75;10.45;;;-0.30;99.90;;;;;;8233904;28;20019;-78
2023/02/15 20:27:27;;;;;;;23.73;9.75;;;-0.30;99.90;;;;;;8234403;28;20030;-80
2023/02/15 20:31:28;;;;;;;22.98;10.63;;;-0.50;99.90;;;;;;8235039;28;20065;-79
2023/02/15 20:35:29;;;;;;;19.90;10.60;;;-0.60;99.90;;;;;;8234074;28;20023;-78
2023/02/15 20:39:31;;;;;;;25.50;11.65;;;-0.50;99.90;;;;;;8236496;28;20065;-79
2023/02/15 20:43:32;;;;;;;25.08;11.27;;;-0.50;99.90;;;;;;8234393;28;20027;-79
2023/02/15 20:47:33;;;;;;;20.08;9.93;;;-0.70;99.90;;;;;;8238489;28;20027;-81
2023/02/15 20:51:34;;;;;;;21.27;9.45;;;-0.80;99.90;;;;;;8236657;28;20033;-81
2023/02/15 20:55:34;;;;;;;22.15;9.40;;;-1.00;99.90;;;;;;8237660;28;20027;-81
2023/02/15 20:59:36;;;;;;;26.98;10.93;;;-1.20;99.90;;;;;;8237229;28;20039;-81
2023/02/15 21:03:36;;;;;;;20.75;9.85;;;-1.00;99.90;;;;;;8244166;28;20031;-80
2023/02/15 21:07:37;;;;;;;26.05;10.20;;;-1.10;99.90;;;;;;8250163;28;20039;-79
2023/02/15 21:11:39;;;;;;;25.20;10.30;;;-1.10;99.90;;;;;;8244161;28;20041;-80
2023/02/15 21:15:39;;;;;;;17.17;8.68;;;-1.00;99.90;;;;;;8235198;28;20049;-81
2023/02/15 21:19:41;;;;;;;20.90;9.27;;;-1.40;99.90;;;;;;8235159;28;20019;-80
2023/02/15 21:23:42;;;;;;;22.95;9.18;;;-1.60;99.90;;;;;;8239642;28;20109;-80
2023/02/15 21:27:44;;;;;;;15.68;7.50;;;-1.70;99.90;;;;;;8235147;28;20034;-80
2023/02/15 21:31:45;;;;;;;20.60;8.23;;;-1.90;99.90;;;;;;8234288;28;20034;-80
2023/02/15 21:35:49;;;;;;;15.82;7.30;;;-2.00;99.90;;;;;;8235764;28;20436;-80
2023/02/15 21:39:50;;;;;;;16.10;7.95;;;-2.00;99.90;;;;;;8235564;28;20026;-80
2023/02/15 21:48:09;;;;;;;17.13;7.95;;;-1.40;99.90;;;;;;8237005;28;20129;-80
2023/02/15 21:52:16;;;;;;;15.77;7.13;;;-1.40;99.90;;;;;;8235167;28;20487;-81
2023/02/15 21:56:21;;;;;;;15.43;7.85;;;-1.70;99.90;;;;;;8234952;28;20038;-80
2023/02/15 22:00:23;;;;;;;16.30;7.85;;;-1.80;99.90;;;;;;8234489;28;20365;-81
2023/02/15 22:04:27;;;;;;;22.77;8.30;;;-1.70;99.90;;;;;;8235513;28;20030;-80